Pagrindinis puslapis
METAR-TAF:

METAR-TAF

Oro uostai :

Chillán, Čilė

platuma: 36-34S, ilguma: 072-02W, Aukštis: 124 m

Dabartinis oras

Ataskaita buvo paskelbta 8 minutes, ne 13:00 UTC
Vėjas 11 kt iš Pietų/Pietvakarių
Temperatūra 11°C
Drėgmė 76%
Slėgis 1024 hPa
Matomumas 10 km arba daugiau
Mažai debesys ne aukštis 2000 ft

METAR: SCCH 171300Z 21011KT 9999 FEW020 11/07 Q1024

Laikas: 10:08 (13:08 UTC)


TAF: trūkstamas

Orai ataskaitas ir orų prognozės (METAR, TAF).

turimą stotys yra geltonos ir raudonos taškus žemėlapyje.

Perkelti pele per norėdami pamatyti stoties vardą.

Tada spustelėkite, norėdami matyti oro stebėjimo ir prognozės.

Norėdami pakeisti žemėlapį: spustelėkite ant žalios mygtukų su juodo kryžiaus žemyn,; žalią mygtuką su brūkšneliu, jei norite nutolinti; arba žalių rodyklių gretimoms žemėlapius.


METAR-TAF: